createdAt,value
2023-01-12T00:01:40.181Z,83.53
2023-01-12T00:04:07.514Z,83.43
2023-01-12T00:06:34.857Z,83.30
2023-01-12T00:09:03.948Z,83.31
2023-01-12T00:11:30.614Z,83.01
2023-01-12T00:13:58.107Z,82.90
2023-01-12T00:16:34.769Z,82.96
2023-01-12T00:19:02.666Z,82.75
2023-01-12T00:21:31.360Z,82.31
2023-01-12T00:23:57.924Z,82.82
2023-01-12T00:26:24.545Z,82.67
2023-01-12T00:28:51.109Z,82.40
2023-01-12T00:31:17.733Z,82.94
2023-01-12T00:33:44.328Z,82.37
2023-01-12T00:36:13.928Z,82.38
2023-01-12T00:38:40.557Z,82.50
2023-01-12T00:41:08.730Z,82.55
2023-01-12T00:43:54.615Z,82.35
2023-01-12T00:46:31.571Z,82.73
2023-01-12T00:48:58.468Z,83.16
2023-01-12T00:51:25.219Z,82.82
2023-01-12T00:53:51.941Z,82.80
2023-01-12T00:56:18.561Z,82.93
2023-01-12T00:58:45.165Z,83.70
2023-01-12T01:01:11.802Z,82.99
2023-01-12T01:03:38.448Z,83.58
2023-01-12T01:06:06.528Z,83.39
2023-01-12T01:08:37.329Z,83.52
2023-01-12T01:11:09.247Z,84.33
2023-01-12T01:13:36.954Z,83.69
2023-01-12T01:16:05.310Z,84.85
2023-01-12T01:18:32.969Z,84.70
2023-01-12T01:20:59.617Z,85.56
2023-01-12T01:23:27.694Z,86.06
2023-01-12T01:25:54.677Z,85.69
2023-01-12T01:28:21.627Z,86.06
2023-01-12T01:30:48.783Z,86.19
2023-01-12T01:33:15.430Z,86.71
2023-01-12T01:35:41.983Z,87.17
2023-01-12T01:38:09.581Z,87.89
2023-01-12T01:40:42.488Z,88.09
2023-01-12T01:43:16.909Z,88.79
2023-01-12T01:45:48.719Z,88.91
2023-01-12T01:48:17.181Z,89.70
2023-01-12T01:50:51.332Z,89.97
2023-01-12T01:53:21.166Z,90.72
2023-01-12T01:55:52.953Z,90.55
2023-01-12T01:58:28.044Z,90.79
2023-01-12T02:00:54.837Z,90.47
2023-01-12T02:03:21.673Z,90.58
2023-01-12T02:05:50.243Z,90.35
2023-01-12T02:08:34.112Z,90.45
2023-01-12T02:11:02.204Z,90.77
2023-01-12T02:13:50.238Z,90.29
2023-01-12T02:16:25.540Z,90.95
2023-01-12T02:18:57.882Z,90.50
2023-01-12T02:22:01.326Z,91.42
2023-01-12T02:25:05.515Z,91.33
2023-01-12T02:28:17.063Z,91.06
2023-01-12T02:31:12.685Z,90.98
2023-01-12T02:33:58.383Z,91.66
2023-01-12T02:36:43.713Z,91.25
2023-01-12T02:39:22.807Z,90.96
2023-01-12T02:42:43.030Z,91.04
2023-01-12T02:45:38.979Z,91.13
2023-01-12T02:48:08.276Z,90.54
2023-01-12T02:50:51.139Z,90.93
2023-01-12T02:53:53.822Z,91.35
2023-01-12T02:56:40.688Z,90.07
2023-01-12T02:59:13.806Z,90.20
2023-01-12T03:01:42.710Z,90.40
2023-01-12T03:04:11.581Z,90.33
2023-01-12T03:07:06.019Z,90.54
2023-01-12T03:09:49.396Z,90.19
2023-01-12T03:12:28.952Z,90.17
2023-01-12T03:14:58.619Z,89.02
2023-01-12T03:17:44.357Z,88.95
2023-01-12T03:20:17.775Z,88.59
2023-01-12T03:22:47.550Z,88.50
2023-01-12T03:25:17.191Z,88.75
2023-01-12T03:27:49.880Z,88.59
2023-01-12T03:30:36.514Z,88.61
2023-01-12T03:33:05.096Z,88.35
2023-01-12T03:35:38.122Z,88.71
2023-01-12T03:38:29.514Z,88.87
2023-01-12T03:41:05.133Z,89.15
2023-01-12T03:43:38.689Z,89.41
2023-01-12T03:46:16.488Z,89.44
2023-01-12T03:48:53.115Z,89.54
2023-01-12T03:51:26.214Z,90.24
2023-01-12T03:53:54.688Z,90.05
2023-01-12T03:56:24.365Z,90.30
2023-01-12T03:58:51.809Z,90.62
2023-01-12T04:01:18.814Z,90.29
2023-01-12T04:03:45.947Z,90.23
2023-01-12T04:06:12.577Z,90.09
2023-01-12T04:08:39.141Z,89.79
2023-01-12T04:11:25.953Z,89.20
2023-01-12T04:13:52.810Z,89.50
2023-01-12T04:16:19.745Z,89.39
2023-01-12T04:18:46.345Z,89.34
2023-01-12T04:21:32.929Z,89.25
2023-01-12T04:24:00.655Z,88.98
2023-01-12T04:26:27.231Z,88.88
2023-01-12T04:28:53.827Z,88.34
2023-01-12T04:31:20.453Z,87.98
2023-01-12T04:33:47.031Z,88.37
2023-01-12T04:36:15.540Z,88.35
2023-01-12T04:38:42.343Z,87.63
2023-01-12T04:41:09.037Z,87.59
2023-01-12T04:43:36.336Z,87.94
2023-01-12T04:46:08.090Z,88.25
2023-01-12T04:48:34.908Z,88.08
2023-01-12T04:51:01.958Z,88.38
2023-01-12T04:53:28.922Z,89.23
2023-01-12T04:55:56.432Z,89.93
2023-01-12T04:58:23.256Z,90.27
2023-01-12T05:00:50.274Z,91.20
2023-01-12T05:03:17.551Z,90.87
2023-01-12T05:05:44.394Z,91.08
2023-01-12T05:08:31.073Z,91.34
2023-01-12T05:11:00.689Z,92.06
2023-01-12T05:13:30.597Z,92.20
2023-01-12T05:15:57.525Z,92.13
2023-01-12T05:18:24.175Z,91.16
2023-01-12T05:20:50.746Z,91.49
2023-01-12T05:23:17.310Z,91.38
2023-01-12T05:25:43.935Z,91.07
2023-01-12T05:28:10.559Z,90.78
2023-01-12T05:30:37.142Z,91.37
2023-01-12T05:33:03.813Z,91.94
2023-01-12T05:35:30.367Z,92.22
2023-01-12T05:37:57.192Z,92.68
2023-01-12T05:40:24.006Z,93.30
2023-01-12T05:43:10.322Z,94.16
2023-01-12T05:45:37.292Z,94.52
2023-01-12T05:48:04.304Z,95.48
2023-01-12T05:50:30.881Z,96.35
2023-01-12T05:53:10.232Z,96.38
2023-01-12T05:55:38.417Z,96.58
2023-01-12T05:58:05.162Z,96.54
2023-01-12T06:00:31.787Z,96.72
2023-01-12T06:02:58.396Z,96.61
2023-01-12T06:05:25.037Z,95.91
2023-01-12T06:07:51.628Z,96.82
2023-01-12T06:10:18.285Z,96.83
2023-01-12T06:13:03.368Z,97.14
2023-01-12T06:15:32.413Z,97.50
2023-01-12T06:17:59.083Z,96.51
2023-01-12T06:20:25.625Z,96.80
2023-01-12T06:22:52.188Z,97.45
2023-01-12T06:25:19.449Z,97.53
2023-01-12T06:27:46.036Z,98.04
2023-01-12T06:30:13.279Z,97.99
2023-01-12T06:32:41.542Z,98.21
2023-01-12T06:35:18.553Z,98.28
2023-01-12T06:37:46.550Z,98.51
2023-01-12T06:40:13.559Z,99.32
2023-01-12T06:42:42.066Z,99.35
2023-01-12T06:45:09.618Z,99.42
2023-01-12T06:47:44.531Z,100.00
2023-01-12T06:50:11.550Z,100.00
2023-01-12T06:52:38.096Z,100.00
2023-01-12T06:55:05.107Z,100.00
2023-01-12T06:57:31.665Z,100.00
2023-01-12T06:59:58.220Z,100.00
2023-01-12T07:02:24.802Z,100.00
2023-01-12T07:04:51.421Z,100.00
2023-01-12T07:07:17.978Z,100.00
2023-01-12T07:09:44.552Z,100.00
2023-01-12T07:12:11.104Z,100.00
2023-01-12T07:14:37.660Z,100.00
2023-01-12T07:17:04.258Z,99.99
2023-01-12T07:19:30.831Z,99.12
2023-01-12T07:21:57.440Z,98.84
2023-01-12T07:24:24.007Z,98.97
2023-01-12T07:26:50.893Z,98.92
2023-01-12T07:29:17.482Z,98.83
2023-01-12T07:31:45.351Z,98.64
2023-01-12T07:34:12.329Z,99.07
2023-01-12T07:36:39.428Z,99.56
2023-01-12T07:39:06.121Z,99.91
2023-01-12T07:41:58.775Z,100.00
2023-01-12T07:44:25.341Z,99.10
2023-01-12T07:46:51.935Z,100.00
2023-01-12T07:49:18.542Z,100.00
2023-01-12T07:51:45.121Z,100.00
2023-01-12T07:54:11.693Z,100.00
2023-01-12T07:56:38.249Z,100.00
2023-01-12T07:59:04.811Z,100.00
2023-01-12T08:01:32.982Z,100.00
2023-01-12T08:03:59.731Z,100.00
2023-01-12T08:06:26.420Z,100.00
2023-01-12T08:08:54.517Z,99.94
2023-01-12T08:11:22.941Z,100.00
2023-01-12T08:13:55.555Z,100.00
2023-01-12T08:16:53.275Z,100.00
2023-01-12T08:19:49.833Z,100.00
2023-01-12T08:22:30.957Z,100.00
2023-01-12T08:25:03.999Z,100.00
2023-01-12T08:27:33.973Z,100.00
2023-01-12T08:30:02.716Z,100.00
2023-01-12T08:32:29.761Z,100.00
2023-01-12T08:35:01.716Z,100.00
2023-01-12T08:37:30.101Z,100.00
2023-01-12T08:39:57.560Z,100.00
2023-01-12T08:42:26.494Z,100.00
2023-01-12T08:44:54.547Z,100.00
2023-01-12T08:47:27.167Z,100.00
2023-01-12T08:49:54.505Z,100.00
2023-01-12T08:52:21.652Z,100.00
2023-01-12T08:54:49.912Z,100.00
2023-01-12T08:57:16.981Z,100.00
2023-01-12T08:59:43.599Z,100.00
2023-01-12T09:02:14.782Z,100.00
2023-01-12T09:04:42.076Z,100.00
2023-01-12T09:07:10.038Z,100.00
2023-01-12T09:09:36.614Z,99.76
2023-01-12T09:12:03.779Z,100.00
2023-01-12T09:14:30.413Z,99.23
2023-01-12T09:16:57.258Z,99.22
2023-01-12T09:19:24.220Z,98.60
2023-01-12T09:21:50.772Z,99.01
2023-01-12T09:24:17.348Z,97.69
2023-01-12T09:26:46.076Z,98.06
2023-01-12T09:29:14.175Z,97.23
2023-01-12T09:31:43.370Z,96.55
2023-01-12T09:34:10.339Z,96.07
2023-01-12T09:36:38.585Z,96.76
2023-01-12T09:39:09.906Z,96.12
2023-01-12T09:42:02.804Z,97.00
2023-01-12T09:44:59.830Z,96.28
2023-01-12T09:47:39.823Z,96.68
2023-01-12T09:50:11.892Z,96.08
2023-01-12T09:52:44.840Z,96.01
2023-01-12T09:55:17.015Z,95.18
2023-01-12T09:58:06.970Z,94.43
2023-01-12T10:00:33.648Z,93.83
2023-01-12T10:03:14.230Z,94.30
2023-01-12T10:05:44.214Z,93.56
2023-01-12T10:08:44.516Z,92.57
2023-01-12T10:11:18.643Z,92.09
2023-01-12T10:14:06.732Z,92.63
2023-01-12T10:16:45.255Z,92.77
2023-01-12T10:19:41.053Z,92.71
2023-01-12T10:22:37.451Z,93.17
2023-01-12T10:25:30.376Z,92.29
2023-01-12T10:27:59.507Z,92.45
2023-01-12T10:30:45.304Z,93.00
2023-01-12T10:33:18.921Z,92.16
2023-01-12T10:35:50.152Z,92.11
2023-01-12T10:38:33.895Z,92.83
2023-01-12T10:41:17.135Z,92.93
2023-01-12T10:44:06.324Z,93.13
2023-01-12T10:46:34.352Z,93.79
2023-01-12T10:49:21.712Z,94.04
2023-01-12T10:51:53.416Z,93.07
2023-01-12T10:54:25.362Z,93.67
2023-01-12T10:57:00.142Z,93.21
2023-01-12T10:59:31.556Z,93.60
2023-01-12T11:02:08.345Z,93.24
2023-01-12T11:04:43.644Z,94.26
2023-01-12T11:07:19.335Z,95.26
2023-01-12T11:09:46.471Z,94.60
2023-01-12T11:12:31.095Z,95.23
2023-01-12T11:15:02.209Z,95.31
2023-01-12T11:17:36.843Z,94.28
2023-01-12T11:20:13.778Z,92.98
2023-01-12T11:22:43.213Z,93.07
2023-01-12T11:25:21.434Z,93.25
2023-01-12T11:27:56.126Z,93.09
2023-01-12T11:30:34.299Z,93.37
2023-01-12T11:33:15.446Z,93.25
2023-01-12T11:35:52.015Z,94.39
2023-01-12T11:38:32.087Z,94.86
2023-01-12T11:40:58.814Z,94.95
2023-01-12T11:43:52.465Z,95.25
2023-01-12T11:46:26.670Z,95.17
2023-01-12T11:49:02.309Z,95.80
2023-01-12T11:51:29.254Z,95.20
2023-01-12T11:53:56.817Z,95.54
2023-01-12T11:56:45.095Z,95.39
2023-01-12T11:59:31.185Z,95.67
2023-01-12T12:02:16.590Z,96.23
2023-01-12T12:05:20.975Z,96.24
2023-01-12T12:07:53.163Z,96.46
2023-01-12T12:10:36.437Z,95.25
2023-01-12T12:13:15.269Z,94.64
2023-01-12T12:16:29.996Z,96.02
2023-01-12T12:19:06.595Z,96.80
2023-01-12T12:21:44.975Z,97.44
2023-01-12T12:24:19.716Z,98.99
2023-01-12T12:27:21.365Z,99.56
2023-01-12T12:30:09.324Z,98.83
2023-01-12T12:32:44.552Z,97.99
2023-01-12T12:35:48.919Z,96.95
2023-01-12T12:38:15.490Z,97.42
2023-01-12T12:41:49.994Z,97.17
2023-01-12T12:44:40.948Z,97.95
2023-01-12T12:47:29.152Z,98.32
2023-01-12T12:49:58.361Z,98.67
2023-01-12T12:52:31.486Z,98.81
2023-01-12T12:54:59.348Z,97.57
2023-01-12T12:57:25.959Z,97.47
2023-01-12T12:59:56.640Z,97.60
2023-01-12T13:02:32.477Z,99.34
2023-01-12T13:05:04.687Z,100.00
2023-01-12T13:07:36.097Z,100.00
2023-01-12T13:10:17.159Z,100.00
2023-01-12T13:12:44.797Z,100.00
2023-01-12T13:15:24.078Z,100.00
2023-01-12T13:17:52.956Z,100.00
2023-01-12T13:20:25.711Z,100.00
2023-01-12T13:22:52.900Z,100.00
2023-01-12T13:25:19.541Z,100.00
2023-01-12T13:28:01.494Z,99.90
2023-01-12T13:30:28.082Z,98.65
2023-01-12T13:33:29.284Z,99.35
2023-01-12T13:36:00.614Z,100.00
2023-01-12T13:38:49.461Z,98.77
2023-01-12T13:41:53.248Z,98.76
2023-01-12T13:44:33.634Z,99.05
2023-01-12T13:47:16.377Z,99.56
2023-01-12T13:49:48.034Z,99.97
2023-01-12T13:52:32.342Z,99.30
2023-01-12T13:54:59.642Z,98.99
2023-01-12T13:57:29.028Z,98.81
2023-01-12T14:00:09.141Z,99.02
2023-01-12T14:02:40.423Z,100.00
2023-01-12T14:05:34.355Z,99.39
2023-01-12T14:08:32.301Z,99.95
2023-01-12T14:11:36.281Z,99.57
2023-01-12T14:15:12.700Z,99.43
2023-01-12T14:17:49.454Z,99.57
2023-01-12T14:20:22.283Z,100.00
2023-01-12T14:22:50.217Z,100.00
2023-01-12T14:25:23.316Z,99.91
2023-01-12T14:27:52.642Z,99.64
2023-01-12T14:30:20.026Z,99.22
2023-01-12T14:32:48.667Z,98.38
2023-01-12T14:35:18.519Z,97.57
2023-01-12T14:38:03.650Z,96.42
2023-01-12T14:40:33.025Z,95.92
2023-01-12T14:43:20.987Z,95.24
2023-01-12T14:46:08.950Z,94.86
2023-01-12T14:48:40.503Z,94.79
2023-01-12T14:51:10.078Z,95.06
2023-01-12T14:53:41.820Z,94.89
2023-01-12T14:56:22.263Z,94.58
2023-01-12T14:58:49.114Z,95.20
2023-01-12T15:01:38.195Z,95.41
2023-01-12T15:04:06.702Z,95.66
2023-01-12T15:06:41.592Z,96.38
2023-01-12T15:09:25.156Z,96.30
2023-01-12T15:11:51.812Z,95.48
2023-01-12T15:14:27.353Z,95.33
2023-01-12T15:17:13.442Z,95.77
2023-01-12T15:19:58.789Z,95.93
2023-01-12T15:22:47.857Z,95.35
2023-01-12T15:25:36.129Z,96.11
2023-01-12T15:28:04.895Z,96.73
2023-01-12T15:30:33.915Z,97.09
2023-01-12T15:33:00.550Z,97.88
2023-01-12T15:35:29.905Z,97.50
2023-01-12T15:37:58.182Z,97.33
2023-01-12T15:40:26.844Z,97.65
2023-01-12T15:42:53.727Z,98.26
2023-01-12T15:45:27.424Z,98.80
2023-01-12T15:47:54.032Z,98.68
2023-01-12T15:50:20.631Z,98.64
2023-01-12T15:52:48.665Z,97.86
2023-01-12T15:55:20.607Z,97.60
2023-01-12T15:57:47.525Z,98.08
2023-01-12T16:00:16.897Z,98.29
2023-01-12T16:02:50.645Z,99.77
2023-01-12T16:05:19.798Z,98.84
2023-01-12T16:07:48.496Z,99.03
2023-01-12T16:10:16.814Z,99.15
2023-01-12T16:12:44.393Z,98.55
2023-01-12T16:15:20.150Z,97.71
2023-01-12T16:17:47.439Z,98.14
2023-01-12T16:20:16.651Z,97.72
2023-01-12T16:22:44.240Z,97.21
2023-01-12T16:25:11.291Z,97.97
2023-01-12T16:27:38.221Z,98.66
2023-01-12T16:30:07.013Z,98.59
2023-01-12T16:32:33.645Z,99.08
2023-01-12T16:35:00.301Z,98.88
2023-01-12T16:37:29.987Z,99.25
2023-01-12T16:39:56.684Z,98.98
2023-01-12T16:42:23.344Z,98.25
2023-01-12T16:44:50.164Z,98.71
2023-01-12T16:47:20.026Z,99.90
2023-01-12T16:49:51.166Z,99.85
2023-01-12T16:52:19.766Z,99.85
2023-01-12T16:54:46.426Z,100.00
2023-01-12T16:57:15.529Z,100.00
2023-01-12T16:59:42.876Z,100.00
2023-01-12T17:02:17.966Z,100.00
2023-01-12T17:04:45.766Z,100.00
2023-01-12T17:07:12.740Z,100.00
2023-01-12T17:09:40.638Z,99.71
2023-01-12T17:12:08.087Z,99.57
2023-01-12T17:14:36.193Z,98.81
2023-01-12T17:17:07.352Z,98.94
2023-01-12T17:19:35.772Z,100.00
2023-01-12T17:22:03.635Z,99.08
2023-01-12T17:24:31.647Z,99.06
2023-01-12T17:26:58.978Z,98.66
2023-01-12T17:29:26.908Z,98.96
2023-01-12T17:31:56.553Z,99.47
2023-01-12T17:34:23.412Z,99.31
2023-01-12T17:36:50.062Z,100.00
2023-01-12T17:39:16.716Z,100.00
2023-01-12T17:42:09.580Z,100.00
2023-01-12T17:44:36.220Z,100.00
2023-01-12T17:47:02.982Z,100.00
2023-01-12T17:49:29.663Z,100.00
2023-01-12T17:51:56.280Z,100.00
2023-01-12T17:54:24.745Z,100.00
2023-01-12T17:56:51.586Z,100.00
2023-01-12T17:59:20.921Z,100.00
2023-01-12T18:01:47.947Z,100.00
2023-01-12T18:04:15.329Z,100.00
2023-01-12T18:06:42.392Z,100.00
2023-01-12T18:09:11.503Z,100.00
2023-01-12T18:11:38.894Z,100.00
2023-01-12T18:14:06.076Z,100.00
2023-01-12T18:16:33.386Z,100.00
2023-01-12T18:19:04.572Z,100.00
2023-01-12T18:21:32.249Z,100.00
2023-01-12T18:23:59.480Z,100.00
2023-01-12T18:26:29.298Z,100.00
2023-01-12T18:28:57.318Z,100.00
2023-01-12T18:31:27.040Z,100.00
2023-01-12T18:34:00.476Z,100.00
2023-01-12T18:36:31.046Z,100.00
2023-01-12T18:38:57.809Z,100.00
2023-01-12T18:41:43.197Z,100.00
2023-01-12T18:44:13.710Z,100.00
2023-01-12T18:47:04.191Z,100.00
2023-01-12T18:49:34.696Z,100.00
2023-01-12T18:52:30.314Z,100.00
2023-01-12T18:54:58.909Z,100.00
2023-01-12T18:57:31.119Z,100.00
2023-01-12T19:00:13.378Z,100.00
2023-01-12T19:02:41.699Z,100.00
2023-01-12T19:05:21.777Z,100.00
2023-01-12T19:07:57.529Z,100.00
2023-01-12T19:10:24.952Z,100.00
2023-01-12T19:13:11.633Z,100.00
2023-01-12T19:15:56.922Z,100.00
2023-01-12T19:18:23.582Z,100.00
2023-01-12T19:20:50.587Z,100.00
2023-01-12T19:23:36.309Z,100.00
2023-01-12T19:26:22.353Z,99.56
2023-01-12T19:28:49.232Z,98.72
2023-01-12T19:31:16.389Z,97.75
2023-01-12T19:33:43.848Z,97.92
2023-01-12T19:36:16.768Z,98.14
2023-01-12T19:38:45.715Z,97.75
2023-01-12T19:41:14.477Z,97.64
2023-01-12T19:43:45.170Z,97.51
2023-01-12T19:46:13.109Z,96.44
2023-01-12T19:48:39.772Z,97.17
2023-01-12T19:51:10.797Z,95.98
2023-01-12T19:53:38.462Z,96.36
2023-01-12T19:56:09.712Z,95.40
2023-01-12T19:58:36.490Z,95.03
2023-01-12T20:01:03.229Z,94.69
2023-01-12T20:03:29.838Z,95.94
2023-01-12T20:05:56.430Z,97.08
2023-01-12T20:08:24.995Z,96.78
2023-01-12T20:10:57.582Z,97.04
2023-01-12T20:13:25.310Z,98.59
2023-01-12T20:15:53.152Z,99.03
2023-01-12T20:18:19.858Z,98.98
2023-01-12T20:20:46.425Z,100.00
2023-01-12T20:23:14.925Z,99.27
2023-01-12T20:25:43.257Z,99.48
2023-01-12T20:28:12.687Z,99.44
2023-01-12T20:30:41.369Z,100.00
2023-01-12T20:33:08.701Z,100.00
2023-01-12T20:35:38.432Z,99.89
2023-01-12T20:38:06.969Z,100.00
2023-01-12T20:40:33.749Z,100.00
2023-01-12T20:43:00.423Z,100.00
2023-01-12T20:45:27.126Z,100.00
2023-01-12T20:47:55.517Z,100.00
2023-01-12T20:50:23.291Z,100.00
2023-01-12T20:52:50.978Z,100.00
2023-01-12T20:55:17.578Z,100.00
2023-01-12T20:57:44.200Z,100.00
2023-01-12T21:00:11.371Z,100.00
2023-01-12T21:02:37.973Z,99.07
2023-01-12T21:05:04.979Z,99.05
2023-01-12T21:07:31.675Z,98.86
2023-01-12T21:09:58.323Z,98.58
2023-01-12T21:12:27.395Z,98.36
2023-01-12T21:14:54.512Z,97.80
2023-01-12T21:17:21.597Z,97.47
2023-01-12T21:19:48.249Z,97.42
2023-01-12T21:22:14.961Z,97.83
2023-01-12T21:24:41.557Z,97.43
2023-01-12T21:27:08.105Z,98.07
2023-01-12T21:29:34.801Z,98.07
2023-01-12T21:32:01.656Z,98.55
2023-01-12T21:34:28.689Z,99.23
2023-01-12T21:36:55.257Z,99.03
2023-01-12T21:39:21.900Z,98.48
2023-01-12T21:42:07.267Z,98.21
2023-01-12T21:44:33.833Z,98.39
2023-01-12T21:47:00.398Z,98.81
2023-01-12T21:49:27.031Z,98.60
2023-01-12T21:51:53.691Z,98.56
2023-01-12T21:54:20.314Z,99.47
2023-01-12T21:56:46.925Z,98.86
2023-01-12T21:59:13.698Z,99.37
2023-01-12T22:01:40.407Z,100.00
2023-01-12T22:04:07.140Z,100.00
2023-01-12T22:06:33.803Z,100.00
2023-01-12T22:09:00.486Z,100.00
2023-01-12T22:11:27.244Z,100.00
2023-01-12T22:13:54.637Z,100.00
2023-01-12T22:16:21.595Z,100.00
2023-01-12T22:18:50.193Z,100.00
2023-01-12T22:21:19.139Z,100.00
2023-01-12T22:23:46.095Z,100.00
2023-01-12T22:26:14.645Z,100.00
2023-01-12T22:28:42.818Z,100.00
2023-01-12T22:31:15.249Z,100.00
2023-01-12T22:33:54.885Z,100.00
2023-01-12T22:36:21.844Z,100.00
2023-01-12T22:38:48.445Z,100.00
2023-01-12T22:41:16.531Z,100.00
2023-01-12T22:43:43.188Z,100.00
2023-01-12T22:46:14.715Z,100.00
2023-01-12T22:48:41.464Z,100.00
2023-01-12T22:51:08.536Z,100.00
2023-01-12T22:53:36.232Z,100.00
2023-01-12T22:56:04.933Z,100.00
2023-01-12T22:58:32.151Z,100.00
2023-01-12T23:01:07.389Z,100.00
2023-01-12T23:03:35.754Z,100.00
2023-01-12T23:06:04.409Z,100.00
2023-01-12T23:08:31.285Z,100.00
2023-01-12T23:11:09.552Z,100.00
2023-01-12T23:13:36.599Z,100.00
2023-01-12T23:16:09.112Z,100.00
2023-01-12T23:18:38.400Z,100.00
2023-01-12T23:21:18.691Z,99.68
2023-01-12T23:23:55.134Z,99.62
2023-01-12T23:26:26.198Z,99.63
2023-01-12T23:28:56.179Z,99.37
2023-01-12T23:31:29.051Z,98.68
2023-01-12T23:33:57.247Z,98.93
2023-01-12T23:36:32.195Z,99.02
2023-01-12T23:39:01.626Z,98.77
2023-01-12T23:41:30.397Z,99.80
2023-01-12T23:44:02.411Z,99.80
2023-01-12T23:46:31.003Z,99.81
2023-01-12T23:48:58.068Z,99.58
2023-01-12T23:51:26.675Z,100.00
2023-01-12T23:53:54.697Z,100.00
2023-01-12T23:56:22.235Z,99.63
2023-01-12T23:58:49.137Z,99.12
